createdAt,value
2019-01-23T00:00:31.022Z,32.20
2019-01-23T00:02:59.965Z,35.27
2019-01-23T00:05:28.861Z,29.27
2019-01-23T00:07:57.840Z,30.90
2019-01-23T00:10:26.719Z,29.50
2019-01-23T00:12:55.505Z,36.47
2019-01-23T00:15:24.479Z,27.73
2019-01-23T00:17:53.340Z,26.75
2019-01-23T00:20:22.138Z,27.40
2019-01-23T00:22:50.928Z,22.83
2019-01-23T00:25:19.715Z,28.90
2019-01-23T00:27:48.503Z,26.47
2019-01-23T00:30:17.786Z,28.93
2019-01-23T00:32:46.567Z,29.97
2019-01-23T00:35:15.519Z,27.87
2019-01-23T00:37:44.306Z,25.87
2019-01-23T00:40:13.389Z,37.10
2019-01-23T00:42:42.174Z,25.48
2019-01-23T00:45:11.459Z,24.30
2019-01-23T00:47:40.311Z,32.67
2019-01-23T00:50:09.718Z,23.97
2019-01-23T00:52:38.594Z,32.03
2019-01-23T00:55:10.580Z,24.17
2019-01-23T00:57:39.365Z,25.40
2019-01-23T01:00:15.619Z,30.90
2019-01-23T01:02:44.550Z,29.97
2019-01-23T01:05:14.195Z,29.20
2019-01-23T01:07:43.073Z,33.37
2019-01-23T01:10:13.206Z,28.60
2019-01-23T01:12:41.998Z,38.93
2019-01-23T01:15:13.377Z,31.07
2019-01-23T01:17:41.856Z,28.20
2019-01-23T01:20:11.390Z,31.68
2019-01-23T01:22:40.253Z,28.13
2019-01-23T01:25:11.314Z,34.23
2019-01-23T01:27:40.210Z,22.62
2019-01-23T01:30:12.826Z,25.62
2019-01-23T01:32:41.750Z,33.43
2019-01-23T01:35:10.696Z,26.70
2019-01-23T01:37:39.501Z,24.45
2019-01-23T01:40:12.497Z,31.10
2019-01-23T01:42:41.272Z,28.17
2019-01-23T01:45:11.118Z,20.77
2019-01-23T01:47:39.992Z,32.83
2019-01-23T01:50:14.823Z,32.42
2019-01-23T01:52:43.686Z,23.73
2019-01-23T01:55:12.941Z,29.13
2019-01-23T01:57:41.807Z,33.10
2019-01-23T02:00:14.096Z,26.60
2019-01-23T02:02:43.043Z,32.23
2019-01-23T02:05:12.194Z,34.97
2019-01-23T02:07:41.134Z,27.73
2019-01-23T02:10:12.520Z,29.25
2019-01-23T02:12:41.573Z,29.20
2019-01-23T02:15:11.483Z,23.60
2019-01-23T02:17:40.543Z,36.65
2019-01-23T02:20:16.485Z,21.62
2019-01-23T02:22:45.427Z,33.87
2019-01-23T02:25:14.589Z,33.23
2019-01-23T02:27:44.129Z,30.43
2019-01-23T02:30:14.020Z,37.93
2019-01-23T02:32:42.893Z,24.07
2019-01-23T02:35:11.827Z,23.13
2019-01-23T02:37:41.088Z,33.00
2019-01-23T02:40:16.594Z,34.75
2019-01-23T02:42:45.551Z,29.40
2019-01-23T02:45:14.883Z,27.40
2019-01-23T02:47:43.764Z,34.03
2019-01-23T02:50:13.037Z,32.97
2019-01-23T02:52:41.827Z,29.87
2019-01-23T02:55:11.855Z,32.78
2019-01-23T02:57:41.477Z,31.52
2019-01-23T03:00:12.928Z,32.40
2019-01-23T03:02:41.885Z,22.27
2019-01-23T03:05:14.123Z,33.13
2019-01-23T03:07:43.072Z,29.27
2019-01-23T03:10:13.712Z,26.37
2019-01-23T03:12:42.679Z,37.73
2019-01-23T03:15:12.478Z,34.65
2019-01-23T03:17:42.015Z,31.87
2019-01-23T03:20:12.950Z,38.65
2019-01-23T03:22:42.502Z,34.85
2019-01-23T03:25:12.878Z,33.18
2019-01-23T03:27:42.288Z,33.45
2019-01-23T03:30:14.425Z,33.85
2019-01-23T03:32:43.369Z,39.25
2019-01-23T03:35:12.620Z,28.52
2019-01-23T03:37:41.562Z,29.00
2019-01-23T03:40:13.341Z,29.20
2019-01-23T03:42:42.839Z,32.73
2019-01-23T03:45:12.841Z,32.73
2019-01-23T03:47:41.773Z,35.05
2019-01-23T03:50:12.898Z,38.83
2019-01-23T03:52:41.775Z,35.25
2019-01-23T03:55:11.515Z,34.20
2019-01-23T03:57:40.447Z,27.40
2019-01-23T04:00:12.503Z,28.57
2019-01-23T04:02:41.472Z,31.63
2019-01-23T04:05:10.920Z,38.37
2019-01-23T04:07:39.922Z,26.50
2019-01-23T04:10:11.324Z,31.00
2019-01-23T04:12:40.201Z,50.97
2019-01-23T04:15:10.320Z,31.20
2019-01-23T04:17:39.197Z,33.20
2019-01-23T04:20:19.933Z,37.33
2019-01-23T04:22:48.801Z,30.13
2019-01-23T04:25:17.841Z,46.15
2019-01-23T04:27:46.784Z,40.17
2019-01-23T04:30:18.281Z,38.83
2019-01-23T04:32:47.160Z,45.80
2019-01-23T04:35:16.091Z,52.85
2019-01-23T04:37:45.041Z,37.60
2019-01-23T04:40:14.345Z,46.68
2019-01-23T04:42:43.302Z,42.62
2019-01-23T04:45:13.844Z,40.95
2019-01-23T04:47:42.769Z,37.73
2019-01-23T04:50:13.300Z,34.13
2019-01-23T04:52:59.891Z,38.20
2019-01-23T04:55:28.777Z,36.80
2019-01-23T04:57:57.653Z,36.67
2019-01-23T05:00:27.688Z,47.87
2019-01-23T05:02:56.569Z,43.40
2019-01-23T05:05:25.453Z,37.27
2019-01-23T05:07:54.407Z,34.60
2019-01-23T05:10:23.343Z,39.77
2019-01-23T05:12:52.226Z,33.43
2019-01-23T05:15:21.099Z,38.20
2019-01-23T05:17:49.891Z,35.57
2019-01-23T05:20:18.827Z,44.83
2019-01-23T05:22:47.766Z,41.63
2019-01-23T05:25:16.714Z,40.10
2019-01-23T05:27:45.616Z,37.03
2019-01-23T05:30:17.971Z,24.32
2019-01-23T05:32:46.827Z,38.33
2019-01-23T05:35:16.245Z,32.45
2019-01-23T05:37:45.865Z,34.15
2019-01-23T05:40:15.213Z,36.77
2019-01-23T05:42:44.153Z,35.77
2019-01-23T05:45:13.420Z,40.00
2019-01-23T05:47:42.280Z,32.97
2019-01-23T05:50:14.003Z,32.53
2019-01-23T05:52:42.945Z,37.73
2019-01-23T05:55:12.745Z,42.00
2019-01-23T05:57:41.607Z,32.10
2019-01-23T06:00:13.508Z,38.75
2019-01-23T06:02:42.378Z,39.78
2019-01-23T06:05:11.681Z,33.30
2019-01-23T06:07:40.553Z,36.57
2019-01-23T06:10:09.817Z,38.50
2019-01-23T06:12:38.805Z,35.57
2019-01-23T06:15:08.689Z,34.93
2019-01-23T06:17:37.488Z,39.23
2019-01-23T06:20:08.423Z,34.70
2019-01-23T06:22:37.322Z,35.13
2019-01-23T06:25:06.802Z,38.73
2019-01-23T06:27:35.803Z,30.03
2019-01-23T06:30:10.331Z,35.43
2019-01-23T06:32:37.671Z,39.33
2019-01-23T06:35:06.673Z,38.10
2019-01-23T06:37:35.537Z,42.90
2019-01-23T06:40:05.582Z,34.33
2019-01-23T06:42:34.380Z,38.20
2019-01-23T06:45:03.252Z,34.97
2019-01-23T06:47:32.254Z,31.30
2019-01-23T06:50:01.124Z,35.90
2019-01-23T06:52:29.982Z,42.00
2019-01-23T06:54:58.792Z,36.10
2019-01-23T06:57:27.651Z,33.23
2019-01-23T06:59:56.447Z,32.23
2019-01-23T07:02:25.315Z,36.30
2019-01-23T07:04:54.121Z,28.03
2019-01-23T07:07:22.992Z,32.60
2019-01-23T07:09:51.967Z,38.83
2019-01-23T07:12:20.747Z,33.23
2019-01-23T07:14:49.524Z,28.17
2019-01-23T07:17:19.053Z,33.73
2019-01-23T07:19:47.848Z,30.20
2019-01-23T07:22:16.654Z,28.70
2019-01-23T07:24:45.525Z,26.80
2019-01-23T07:27:14.324Z,34.37
2019-01-23T07:29:43.216Z,35.75
2019-01-23T07:32:12.185Z,32.20
2019-01-23T07:34:40.984Z,31.50
2019-01-23T07:37:09.929Z,40.30
2019-01-23T07:39:38.748Z,40.37
2019-01-23T07:42:07.611Z,35.98
2019-01-23T07:44:36.404Z,39.67
2019-01-23T07:47:05.389Z,30.90
2019-01-23T07:49:34.184Z,32.43
2019-01-23T07:52:03.077Z,33.33
2019-01-23T07:54:31.856Z,37.45
2019-01-23T07:57:00.661Z,30.43
2019-01-23T07:59:29.448Z,42.20
2019-01-23T08:01:58.319Z,30.67
2019-01-23T08:04:27.100Z,32.50
2019-01-23T08:06:55.912Z,47.23
2019-01-23T08:09:24.768Z,34.60
2019-01-23T08:11:53.675Z,40.83
2019-01-23T08:14:22.436Z,31.83
2019-01-23T08:16:51.599Z,40.57
2019-01-23T08:19:21.016Z,36.48
2019-01-23T08:21:49.936Z,34.00
2019-01-23T08:24:18.813Z,32.90
2019-01-23T08:26:47.725Z,36.67
2019-01-23T08:29:16.661Z,32.53
2019-01-23T08:31:45.541Z,40.30
2019-01-23T08:34:14.306Z,40.83
2019-01-23T08:36:43.100Z,37.73
2019-01-23T08:39:11.957Z,34.93
2019-01-23T08:41:40.951Z,39.33
2019-01-23T08:44:09.808Z,41.83
2019-01-23T08:46:38.590Z,33.03
2019-01-23T08:49:07.379Z,33.63
2019-01-23T08:51:36.164Z,45.50
2019-01-23T08:54:05.602Z,37.10
2019-01-23T08:56:34.462Z,38.70
2019-01-23T08:59:03.421Z,43.67
2019-01-23T09:01:32.202Z,43.02
2019-01-23T09:04:00.994Z,48.83
2019-01-23T09:06:29.868Z,46.17
2019-01-23T09:08:58.648Z,48.55
2019-01-23T09:11:27.435Z,43.00
2019-01-23T09:13:56.253Z,43.57
2019-01-23T09:16:25.039Z,39.77
2019-01-23T09:18:53.948Z,34.38
2019-01-23T09:21:23.167Z,38.70
2019-01-23T09:23:52.326Z,32.90
2019-01-23T09:26:21.125Z,43.87
2019-01-23T09:28:49.936Z,32.70
2019-01-23T09:32:07.725Z,48.90
2019-01-23T09:35:05.615Z,47.93
2019-01-23T09:38:09.256Z,37.35
2019-01-23T09:41:04.121Z,38.63
2019-01-23T09:44:10.549Z,37.47
2019-01-23T09:47:03.100Z,44.80
2019-01-23T09:50:22.397Z,49.27
2019-01-23T09:53:20.966Z,42.90
2019-01-23T09:55:49.868Z,49.07
2019-01-23T09:58:18.827Z,42.77
2019-01-23T10:00:47.687Z,35.13
2019-01-23T10:03:22.804Z,34.60
2019-01-23T10:05:47.077Z,40.63
2019-01-23T10:08:15.898Z,36.73
2019-01-23T10:10:44.783Z,41.20
2019-01-23T10:13:13.584Z,33.43
2019-01-23T10:15:51.633Z,50.63
2019-01-23T10:18:20.500Z,47.40
2019-01-23T10:20:49.371Z,46.63
2019-01-23T10:23:18.182Z,38.25
2019-01-23T10:25:47.071Z,36.73
2019-01-23T10:28:15.941Z,38.63
2019-01-23T10:30:44.819Z,50.63
2019-01-23T10:33:13.595Z,34.27
2019-01-23T10:35:42.465Z,42.00
2019-01-23T10:38:11.262Z,44.70
2019-01-23T10:40:40.129Z,44.47
2019-01-23T10:43:09.083Z,33.05
2019-01-23T10:45:37.958Z,36.60
2019-01-23T10:48:07.181Z,43.37
2019-01-23T10:50:36.058Z,37.67
2019-01-23T10:53:05.047Z,35.00
2019-01-23T10:55:33.925Z,51.90
2019-01-23T10:58:02.879Z,29.30
2019-01-23T11:00:32.097Z,35.83
2019-01-23T11:03:01.071Z,36.25
2019-01-23T11:05:30.131Z,42.37
2019-01-23T11:07:59.059Z,29.70
2019-01-23T11:10:28.041Z,34.17
2019-01-23T11:12:57.342Z,35.25
2019-01-23T11:15:26.286Z,35.78
2019-01-23T11:17:55.152Z,35.17
2019-01-23T11:20:24.121Z,38.27
2019-01-23T11:22:52.999Z,45.73
2019-01-23T11:25:21.958Z,48.50
2019-01-23T11:27:50.896Z,44.23
2019-01-23T11:30:22.526Z,38.88
2019-01-23T11:32:51.508Z,39.57
2019-01-23T11:35:20.383Z,48.30
2019-01-23T11:37:49.649Z,47.70
2019-01-23T11:40:21.391Z,42.07
2019-01-23T11:42:50.321Z,42.05
2019-01-23T11:45:19.274Z,47.83
2019-01-23T11:47:48.608Z,50.13
2019-01-23T11:50:22.932Z,39.70
2019-01-23T11:52:49.136Z,40.70
2019-01-23T11:55:18.155Z,38.57
2019-01-23T11:57:47.024Z,46.37
2019-01-23T12:00:20.573Z,40.17
2019-01-23T12:02:49.763Z,45.23
2019-01-23T12:05:20.547Z,41.83
2019-01-23T12:07:49.969Z,43.30
2019-01-23T12:10:20.622Z,45.90
2019-01-23T12:12:49.474Z,49.63
2019-01-23T12:15:20.171Z,43.47
2019-01-23T12:17:49.118Z,40.30
2019-01-23T12:20:18.264Z,42.40
2019-01-23T12:22:47.200Z,41.77
2019-01-23T12:25:16.243Z,48.95
2019-01-23T12:27:45.235Z,54.90
2019-01-23T12:30:17.360Z,33.70
2019-01-23T12:32:46.194Z,41.50
2019-01-23T12:35:15.153Z,42.80
2019-01-23T12:37:44.092Z,34.70
2019-01-23T12:40:13.359Z,45.83
2019-01-23T12:42:42.219Z,46.17
2019-01-23T12:45:17.644Z,36.17
2019-01-23T12:47:46.432Z,34.53
2019-01-23T12:50:17.479Z,37.20
2019-01-23T12:52:46.347Z,30.60
2019-01-23T12:55:15.430Z,37.80
2019-01-23T12:57:44.392Z,32.63
2019-01-23T13:00:16.861Z,37.27
2019-01-23T13:02:45.731Z,37.30
2019-01-23T13:05:17.785Z,40.73
2019-01-23T13:07:46.777Z,37.67
2019-01-23T13:10:17.671Z,33.53
2019-01-23T13:12:46.626Z,45.30
2019-01-23T13:15:18.217Z,36.97
2019-01-23T13:17:47.115Z,32.48
2019-01-23T13:20:16.921Z,51.53
2019-01-23T13:22:45.868Z,44.30
2019-01-23T13:25:18.528Z,44.10
2019-01-23T13:27:48.011Z,56.50
2019-01-23T13:30:19.060Z,47.75
2019-01-23T13:32:48.167Z,45.17
2019-01-23T13:35:19.252Z,43.90
2019-01-23T13:37:48.218Z,46.70
2019-01-23T13:40:22.831Z,49.07
2019-01-23T13:42:51.617Z,38.30
2019-01-23T13:45:20.839Z,48.03
2019-01-23T13:47:49.727Z,45.75
2019-01-23T13:50:18.754Z,39.20
2019-01-23T13:52:47.832Z,31.57
2019-01-23T13:55:17.864Z,30.10
2019-01-23T13:57:46.778Z,49.17
2019-01-23T14:00:21.483Z,40.17
2019-01-23T14:02:50.434Z,32.23
2019-01-23T14:05:19.487Z,41.00
2019-01-23T14:07:48.444Z,42.73
2019-01-23T14:10:17.559Z,44.97
2019-01-23T14:12:46.495Z,41.40
2019-01-23T14:15:19.600Z,33.90
2019-01-23T14:17:48.474Z,34.13
2019-01-23T14:20:17.908Z,35.78
2019-01-23T14:22:46.700Z,44.47
2019-01-23T14:25:16.126Z,40.30
2019-01-23T14:27:45.279Z,31.03
2019-01-23T14:30:23.375Z,28.13
2019-01-23T14:32:52.174Z,47.17
2019-01-23T14:35:21.077Z,41.13
2019-01-23T14:37:49.955Z,43.17
2019-01-23T14:40:18.980Z,38.40
2019-01-23T14:42:47.866Z,38.20
2019-01-23T14:45:16.959Z,37.50
2019-01-23T14:47:45.943Z,52.80
2019-01-23T14:50:15.015Z,35.97
2019-01-23T14:52:44.506Z,40.30
2019-01-23T14:55:13.741Z,42.80
2019-01-23T14:57:43.102Z,38.50
2019-01-23T15:00:15.472Z,43.63
2019-01-23T15:02:44.453Z,45.27
2019-01-23T15:05:13.493Z,32.80
2019-01-23T15:07:42.453Z,34.58
2019-01-23T15:10:14.878Z,38.83
2019-01-23T15:12:43.820Z,33.00
2019-01-23T15:15:13.006Z,34.43
2019-01-23T15:17:41.876Z,48.52
2019-01-23T15:20:15.198Z,44.37
2019-01-23T15:22:44.060Z,40.60
2019-01-23T15:25:13.311Z,39.20
2019-01-23T15:27:42.115Z,39.80
2019-01-23T15:30:12.827Z,53.37
2019-01-23T15:32:41.685Z,47.43
2019-01-23T15:35:10.866Z,54.50
2019-01-23T15:37:39.815Z,59.10
2019-01-23T15:40:11.907Z,39.38
2019-01-23T15:42:40.781Z,47.50
2019-01-23T15:45:10.388Z,41.03
2019-01-23T15:47:39.472Z,55.53
2019-01-23T15:50:11.943Z,40.50
2019-01-23T15:52:40.806Z,53.53
2019-01-23T15:55:11.539Z,46.50
2019-01-23T15:57:40.332Z,47.83
2019-01-23T16:00:16.135Z,41.95
2019-01-23T16:02:45.164Z,29.50
2019-01-23T16:05:14.725Z,50.80
2019-01-23T16:07:43.720Z,42.87
2019-01-23T16:10:14.956Z,48.67
2019-01-23T16:12:43.988Z,32.67
2019-01-23T16:15:13.539Z,59.63
2019-01-23T16:17:42.905Z,47.58
2019-01-23T16:20:12.107Z,37.47
2019-01-23T16:22:41.241Z,48.30
2019-01-23T16:25:12.066Z,53.13
2019-01-23T16:27:41.070Z,43.13
2019-01-23T16:30:15.326Z,49.00
2019-01-23T16:32:44.189Z,40.60
2019-01-23T16:35:13.142Z,47.77
2019-01-23T16:37:42.174Z,52.73
2019-01-23T16:40:11.608Z,48.98
2019-01-23T16:42:41.473Z,54.58
2019-01-23T16:45:11.849Z,62.93
2019-01-23T16:47:41.392Z,47.95
2019-01-23T16:50:14.562Z,63.42
2019-01-23T16:52:43.605Z,56.67
2019-01-23T16:55:12.763Z,68.83
2019-01-23T16:57:42.021Z,62.73
2019-01-23T17:00:13.594Z,77.10
2019-01-23T17:02:42.462Z,51.02
2019-01-23T17:05:15.591Z,56.18
2019-01-23T17:07:44.736Z,49.40
2019-01-23T17:10:15.842Z,65.73
2019-01-23T17:12:44.883Z,52.80
2019-01-23T17:15:13.840Z,42.03
2019-01-23T17:17:42.787Z,55.53
2019-01-23T17:20:18.013Z,53.13
2019-01-23T17:22:46.891Z,38.40
2019-01-23T17:25:15.941Z,62.83
2019-01-23T17:27:44.851Z,61.20
2019-01-23T17:30:15.092Z,57.47
2019-01-23T17:32:45.728Z,51.93
2019-01-23T17:35:15.823Z,51.33
2019-01-23T17:37:44.800Z,68.60
2019-01-23T17:40:15.778Z,59.47
2019-01-23T17:42:44.831Z,52.90
2019-01-23T17:45:16.278Z,56.70
2019-01-23T17:47:45.227Z,63.53
2019-01-23T17:50:16.190Z,50.37
2019-01-23T17:52:45.049Z,55.60
2019-01-23T17:55:20.187Z,80.93
2019-01-23T17:57:49.048Z,42.87
2019-01-23T18:00:22.295Z,60.10
2019-01-23T18:02:52.753Z,49.43
2019-01-23T18:05:21.929Z,60.70
2019-01-23T18:07:50.824Z,56.73
2019-01-23T18:10:19.764Z,77.23
2019-01-23T18:12:48.699Z,58.98
2019-01-23T18:15:22.435Z,51.55
2019-01-23T18:17:51.405Z,59.60
2019-01-23T18:20:27.924Z,69.57
2019-01-23T18:22:57.058Z,37.70
2019-01-23T18:25:26.122Z,53.53
2019-01-23T18:27:54.995Z,46.87
2019-01-23T18:30:30.119Z,61.73
2019-01-23T18:33:00.158Z,56.23
2019-01-23T18:35:54.278Z,60.87
2019-01-23T18:38:39.445Z,43.50
2019-01-23T18:41:51.404Z,48.40
2019-01-23T18:44:52.159Z,50.40
2019-01-23T18:47:52.649Z,53.10
2019-01-23T18:51:04.389Z,42.53
2019-01-23T18:53:33.253Z,51.95
2019-01-23T18:56:02.103Z,54.77
2019-01-23T18:58:31.072Z,46.93
2019-01-23T19:00:59.875Z,45.97
2019-01-23T19:03:28.880Z,43.83
2019-01-23T19:05:57.749Z,54.13
2019-01-23T19:08:27.056Z,46.87
2019-01-23T19:10:56.088Z,41.70
2019-01-23T19:13:25.000Z,56.25
2019-01-23T19:15:53.936Z,53.97
2019-01-23T19:18:22.799Z,59.97
2019-01-23T19:20:51.656Z,55.37
2019-01-23T19:23:20.614Z,57.97
2019-01-23T19:25:49.544Z,53.60
2019-01-23T19:28:18.339Z,49.90
2019-01-23T19:30:47.200Z,65.60
2019-01-23T19:33:16.067Z,69.57
2019-01-23T19:35:45.737Z,61.90
2019-01-23T19:38:14.605Z,57.95
2019-01-23T19:40:43.849Z,56.17
2019-01-23T19:43:12.784Z,59.27
2019-01-23T19:45:41.649Z,49.93
2019-01-23T19:48:10.638Z,51.97
2019-01-23T19:50:39.434Z,56.87
2019-01-23T19:53:08.498Z,53.10
2019-01-23T19:55:37.439Z,55.97
2019-01-23T19:58:06.513Z,80.70
2019-01-23T20:00:36.063Z,63.13
2019-01-23T20:03:05.277Z,56.20
2019-01-23T20:05:34.553Z,52.10
2019-01-23T20:08:04.257Z,70.70
2019-01-23T20:10:33.114Z,61.57
2019-01-23T20:13:02.029Z,53.63
2019-01-23T20:15:31.837Z,54.00
2019-01-23T20:18:06.710Z,54.67
2019-01-23T20:20:35.558Z,50.20
2019-01-23T20:23:04.595Z,54.70
2019-01-23T20:25:33.516Z,65.00
2019-01-23T20:28:03.249Z,68.90
2019-01-23T20:30:38.243Z,52.27
2019-01-23T20:33:07.387Z,51.87
2019-01-23T20:35:36.367Z,58.75
2019-01-23T20:38:05.701Z,55.93
2019-01-23T20:40:34.859Z,67.07
2019-01-23T20:43:03.845Z,62.63
2019-01-23T20:45:32.732Z,44.03
2019-01-23T20:48:01.714Z,62.20
2019-01-23T20:50:31.861Z,54.10
2019-01-23T20:53:00.908Z,60.17
2019-01-23T20:55:29.736Z,52.63
2019-01-23T20:57:58.832Z,45.23
2019-01-23T21:00:30.076Z,52.90
2019-01-23T21:02:59.110Z,64.37
2019-01-23T21:05:28.176Z,61.30
2019-01-23T21:07:57.085Z,52.57
2019-01-23T21:10:26.282Z,34.57
2019-01-23T21:12:55.251Z,47.40
2019-01-23T21:15:34.396Z,61.67
2019-01-23T21:18:05.059Z,61.73
2019-01-23T21:20:36.531Z,55.10
2019-01-23T21:23:06.151Z,50.70
2019-01-23T21:25:35.165Z,71.67
2019-01-23T21:28:04.364Z,53.28
2019-01-23T21:30:33.224Z,61.10
2019-01-23T21:33:02.215Z,52.67
2019-01-23T21:35:31.138Z,54.47
2019-01-23T21:37:59.921Z,36.73
2019-01-23T21:40:31.216Z,59.43
2019-01-23T21:43:00.509Z,44.40
2019-01-23T21:45:30.984Z,41.75
2019-01-23T21:48:00.032Z,44.13
2019-01-23T21:50:29.130Z,58.40
2019-01-23T21:52:58.238Z,49.43
2019-01-23T21:55:27.216Z,46.47
2019-01-23T21:57:56.034Z,70.10
2019-01-23T22:02:38.631Z,53.83
2019-01-23T22:05:08.202Z,43.27
2019-01-23T22:07:37.083Z,41.07
2019-01-23T22:10:06.695Z,60.67
2019-01-23T22:12:35.516Z,47.97
2019-01-23T22:15:05.313Z,59.07
2019-01-23T22:17:34.119Z,46.30
2019-01-23T22:20:03.054Z,46.87
2019-01-23T22:22:31.921Z,56.90
2019-01-23T22:25:00.805Z,59.38
2019-01-23T22:27:29.620Z,62.20
2019-01-23T22:29:58.476Z,36.43
2019-01-23T22:32:27.335Z,57.47
2019-01-23T22:34:56.223Z,62.90
2019-01-23T22:37:25.224Z,46.03
2019-01-23T22:39:54.240Z,52.60
2019-01-23T22:42:23.193Z,62.77
2019-01-23T22:44:51.993Z,70.63
2019-01-23T22:47:21.763Z,55.38
2019-01-23T22:49:50.815Z,56.07
2019-01-23T22:52:19.627Z,74.07
2019-01-23T22:54:48.744Z,61.27
2019-01-23T22:57:17.721Z,67.20
2019-01-23T22:59:46.667Z,55.87
2019-01-23T23:02:15.607Z,67.27
2019-01-23T23:04:44.555Z,64.50
2019-01-23T23:07:13.454Z,49.48
2019-01-23T23:09:42.310Z,55.15
2019-01-23T23:12:11.270Z,57.97
2019-01-23T23:14:40.138Z,77.20
2019-01-23T23:17:09.008Z,62.53
2019-01-23T23:19:37.806Z,60.17
2019-01-23T23:22:06.729Z,55.70
2019-01-23T23:24:35.704Z,56.97
2019-01-23T23:27:04.757Z,77.37
2019-01-23T23:29:33.651Z,54.83
2019-01-23T23:32:02.593Z,64.37
2019-01-23T23:34:31.477Z,59.83
2019-01-23T23:37:00.352Z,54.95
2019-01-23T23:39:29.152Z,56.97
2019-01-23T23:41:57.953Z,70.92
2019-01-23T23:44:26.903Z,62.93
2019-01-23T23:46:55.786Z,65.45
2019-01-23T23:49:24.789Z,65.27
2019-01-23T23:51:54.016Z,51.47
2019-01-23T23:54:22.881Z,61.33
2019-01-23T23:56:51.683Z,57.80
2019-01-23T23:59:20.577Z,74.40
